Time;durP1;ratioP1;P1;durP2;ratioP2;P2;SDS_P1;SDS_P2;PMS_P1;PMS_P2;Temp;Humidity;BMP_temperature;BMP_pressure;BME280_temperature;BME280_humidity;BME280_pressure;Samples;Min_cycle;Max_cycle;Signal;HPM_P1;HPM_P2
2022/07/13 00:00:51;;;;;;;2.20;0.60;;;;;;;20.45;75.77;100895.34;4973031;28;20473;-52
2022/07/13 00:03:18;;;;;;;0.70;0.70;;;;;;;20.52;74.79;100895.81;4959938;28;20487;-50
2022/07/13 00:05:45;;;;;;;0.60;0.60;;;;;;;20.48;75.11;100883.47;4972851;28;20955;-50
2022/07/13 00:08:11;;;;;;;1.00;1.00;;;;;;;20.36;75.44;100877.81;4972694;28;20479;-49
2022/07/13 00:10:37;;;;;;;0.70;0.60;;;;;;;20.38;75.50;100881.28;4965657;28;20523;-50
2022/07/13 00:13:04;;;;;;;0.70;0.40;;;;;;;20.26;75.40;100873.91;4967511;28;20461;-50
2022/07/13 00:15:30;;;;;;;0.50;0.37;;;;;;;20.38;75.81;100869.59;4972688;28;20457;-50
2022/07/13 00:17:57;;;;;;;0.60;0.53;;;;;;;20.18;76.31;100870.81;4972418;28;20470;-50
2022/07/13 00:20:23;;;;;;;2.27;2.07;;;;;;;20.23;76.46;100876.78;4972789;28;20947;-50
2022/07/13 00:22:50;;;;;;;2.40;1.63;;;;;;;20.22;76.43;100874.19;4977437;28;20541;-51
2022/07/13 00:25:17;;;;;;;0.50;0.30;;;;;;;20.36;75.72;100868.84;4979341;28;20593;-50
2022/07/13 00:27:44;;;;;;;2.30;2.20;;;;;;;20.39;75.30;100866.81;4975850;28;21011;-50
2022/07/13 00:30:10;;;;;;;0.80;0.50;;;;;;;20.33;75.59;100871.72;4975902;28;20454;-50
2022/07/13 00:32:37;;;;;;;0.90;0.50;;;;;;;20.40;75.25;100876.66;4975759;28;20458;-50
2022/07/13 00:35:05;;;;;;;1.53;1.43;;;;;;;20.35;75.31;100870.66;4976200;28;20458;-50
2022/07/13 00:37:31;;;;;;;1.17;0.80;;;;;;;20.47;74.64;100870.94;4975782;28;20466;-50
2022/07/13 00:39:58;;;;;;;0.50;0.30;;;;;;;20.55;75.33;100865.91;4975786;28;20959;-51
2022/07/13 00:42:24;;;;;;;0.50;0.40;;;;;;;20.46;75.81;100866.50;4962872;28;20457;-50
2022/07/13 00:44:51;;;;;;;0.50;0.30;;;;;;;20.52;75.27;100860.69;4975475;28;21007;-50
2022/07/13 00:47:17;;;;;;;0.87;0.40;;;;;;;20.68;74.03;100859.66;4976017;28;20505;-50
2022/07/13 00:49:44;;;;;;;0.60;0.50;;;;;;;20.54;73.39;100856.94;4975880;28;20458;-50
2022/07/13 00:52:11;;;;;;;0.50;0.37;;;;;;;20.49;74.45;100858.19;4975365;28;20446;-50
2022/07/13 00:54:39;;;;;;;0.60;0.50;;;;;;;20.40;74.09;100854.19;4985320;28;20441;-50
2022/07/13 00:57:11;;;;;;;0.50;0.40;;;;;;;20.52;74.56;100852.59;4966153;28;20450;-49
2022/07/13 00:59:37;;;;;;;0.70;0.40;;;;;;;20.40;75.08;100855.03;4975741;28;20447;-50
2022/07/13 01:02:04;;;;;;;0.60;0.30;;;;;;;20.40;75.67;100846.06;4971541;28;20467;-52
2022/07/13 01:04:30;;;;;;;1.07;0.80;;;;;;;20.19;76.01;100841.97;4966678;28;20494;-49
2022/07/13 01:06:58;;;;;;;1.20;0.50;;;;;;;20.10;76.59;100840.69;4975464;28;20504;-50
2022/07/13 01:09:25;;;;;;;0.83;0.83;;;;;;;20.20;76.40;100839.19;4975622;28;20455;-50
2022/07/13 01:11:52;;;;;;;0.63;0.50;;;;;;;20.06;76.39;100836.44;4962261;28;20455;-51
2022/07/13 01:14:20;;;;;;;0.50;0.43;;;;;;;19.97;77.27;100837.84;4975362;28;20786;-50
2022/07/13 01:16:46;;;;;;;3.80;0.87;;;;;;;20.06;76.54;100833.75;4975330;28;20450;-50
2022/07/13 01:19:13;;;;;;;0.60;0.50;;;;;;;19.97;77.42;100828.88;4975480;28;20519;-49
2022/07/13 01:21:45;;;;;;;0.60;0.50;;;;;;;19.98;77.71;100827.91;4975235;28;20461;-51
2022/07/13 01:24:12;;;;;;;0.70;0.43;;;;;;;19.98;77.65;100822.50;4975385;28;20490;-50
2022/07/13 01:26:39;;;;;;;0.50;0.30;;;;;;;20.13;77.68;100844.06;4974850;28;20953;-50
2022/07/13 01:29:07;;;;;;;0.90;0.47;;;;;;;20.09;77.31;100838.94;4975299;28;20474;-50
2022/07/13 01:31:35;;;;;;;0.70;0.50;;;;;;;20.21;76.71;100835.53;4974919;28;20450;-50
2022/07/13 01:34:03;;;;;;;0.60;0.60;;;;;;;20.28;76.50;100825.22;4975186;28;20451;-50
2022/07/13 01:36:30;;;;;;;1.40;0.63;;;;;;;20.24;76.83;100827.22;4973907;28;20853;-50
2022/07/13 01:38:57;;;;;;;1.90;1.67;;;;;;;20.17;77.91;100843.91;4974450;28;20471;-50
2022/07/13 01:41:26;;;;;;;0.60;0.60;;;;;;;20.17;77.61;100839.38;4968622;28;20462;-50
2022/07/13 01:43:52;;;;;;;1.40;0.60;;;;;;;20.04;78.07;100836.53;4968791;28;20517;-52
2022/07/13 01:46:19;;;;;;;0.70;0.53;;;;;;;20.22;77.29;100839.97;4974785;28;20450;-50
2022/07/13 01:48:45;;;;;;;0.63;0.50;;;;;;;20.08;77.70;100845.31;4974538;28;20479;-51
2022/07/13 01:51:12;;;;;;;3.20;0.93;;;;;;;20.16;77.75;100831.38;4974606;28;20489;-50
2022/07/13 01:53:40;;;;;;;0.70;0.63;;;;;;;20.13;78.29;100835.09;4976229;28;20520;-50
2022/07/13 01:56:07;;;;;;;0.60;0.40;;;;;;;20.00;79.23;100826.84;4977255;28;20953;-50
2022/07/13 01:58:33;;;;;;;0.80;0.50;;;;;;;19.96;79.47;100835.22;4969834;28;20854;-50
2022/07/13 02:01:02;;;;;;;0.70;0.50;;;;;;;20.01;78.81;100831.31;4974628;28;20460;-50
2022/07/13 02:03:30;;;;;;;0.70;0.60;;;;;;;20.07;78.97;100821.97;4961368;28;20455;-50
2022/07/13 02:05:57;;;;;;;0.97;0.80;;;;;;;20.09;79.77;100811.97;4974460;28;20454;-50
2022/07/13 02:08:25;;;;;;;0.73;0.53;;;;;;;20.05;80.17;100807.72;4974040;28;20513;-50
2022/07/13 02:10:51;;;;;;;0.70;0.50;;;;;;;19.95;80.21;100799.28;4964770;28;20840;-50
2022/07/13 02:13:19;;;;;;;0.60;0.43;;;;;;;20.10;79.50;100811.84;4971099;28;20462;-50
2022/07/13 02:15:45;;;;;;;1.13;0.70;;;;;;;20.06;80.17;100798.66;4974126;28;20940;-50
2022/07/13 02:18:12;;;;;;;12.30;0.50;;;;;;;20.06;79.56;100804.03;4974175;28;20474;-50
2022/07/13 02:20:39;;;;;;;1.27;0.73;;;;;;;20.18;80.11;100802.44;4974086;28;20477;-50
2022/07/13 02:23:06;;;;;;;0.70;0.60;;;;;;;20.24;79.33;100796.66;4973941;28;20958;-50
2022/07/13 02:25:33;;;;;;;0.50;0.40;;;;;;;20.06;79.30;100796.81;4974534;28;20494;-49
2022/07/13 02:28:00;;;;;;;0.80;0.67;;;;;;;20.21;78.93;100800.44;4974098;28;20470;-50
2022/07/13 02:30:26;;;;;;;0.63;0.53;;;;;;;20.22;78.68;100798.59;4974055;28;20940;-50
2022/07/13 02:32:55;;;;;;;4.20;0.50;;;;;;;20.29;77.84;100806.25;4973843;28;20478;-50
2022/07/13 02:35:22;;;;;;;0.60;0.40;;;;;;;20.28;79.06;100801.78;4973544;28;20812;-50
2022/07/13 02:37:48;;;;;;;0.70;0.70;;;;;;;20.27;79.33;100802.75;4975836;28;20478;-50
2022/07/13 02:40:15;;;;;;;8.93;0.90;;;;;;;20.19;78.88;100799.66;4976336;28;20452;-50
2022/07/13 02:42:45;;;;;;;2.67;0.93;;;;;;;20.38;78.30;100802.09;4960677;28;20446;-50
2022/07/13 02:45:12;;;;;;;1.63;0.60;;;;;;;20.27;78.90;100796.47;4973580;28;20498;-50
2022/07/13 02:47:38;;;;;;;0.63;0.50;;;;;;;20.21;78.41;100797.72;4973016;28;20481;-51
2022/07/13 02:50:05;;;;;;;0.70;0.53;;;;;;;20.17;79.09;100796.19;4974097;28;20454;-52
2022/07/13 02:52:31;;;;;;;0.60;0.60;;;;;;;19.90;81.21;100782.50;4973674;28;20462;-52
2022/07/13 02:54:58;;;;;;;0.80;0.67;;;;;;;19.93;81.42;100776.06;4985610;28;20822;-53
2022/07/13 02:57:25;;;;;;;0.70;0.50;;;;;;;19.93;81.88;100771.53;4960629;28;20524;-53
2022/07/13 02:59:52;;;;;;;0.77;0.70;;;;;;;19.69;83.60;100768.44;4973945;28;20450;-53
2022/07/13 03:02:18;;;;;;;0.80;0.80;;;;;;;19.65;83.90;100772.28;4959519;28;20551;-52
2022/07/13 03:04:46;;;;;;;16.20;1.60;;;;;;;19.63;82.91;100786.81;4966923;28;20494;-53
2022/07/13 03:07:12;;;;;;;0.93;0.80;;;;;;;19.64;82.43;100783.16;4973141;28;20875;-53
2022/07/13 03:09:39;;;;;;;0.57;0.50;;;;;;;19.75;82.32;100783.41;4973443;28;20478;-52
2022/07/13 03:12:05;;;;;;;0.90;0.70;;;;;;;19.52;82.32;100784.72;4967063;28;20473;-53
2022/07/13 03:14:32;;;;;;;0.83;0.50;;;;;;;19.64;81.56;100785.88;4966763;28;21042;-52
2022/07/13 03:16:58;;;;;;;1.97;0.70;;;;;;;19.66;81.99;100783.94;4973162;28;20462;-53
2022/07/13 03:19:26;;;;;;;0.70;0.70;;;;;;;19.65;82.10;100785.78;4973460;28;20871;-53
2022/07/13 03:21:52;;;;;;;7.13;1.13;;;;;;;19.52;82.80;100787.41;4973298;28;20461;-53
2022/07/13 03:24:18;;;;;;;1.03;0.70;;;;;;;19.56;82.77;100786.28;4973329;28;20486;-52
2022/07/13 03:26:45;;;;;;;0.80;0.80;;;;;;;19.49;82.68;100787.59;4973511;28;20454;-53
2022/07/13 03:29:11;;;;;;;1.17;0.60;;;;;;;19.46;83.25;100794.03;4973082;28;20475;-52
2022/07/13 03:31:38;;;;;;;0.67;0.47;;;;;;;19.28;84.25;100792.38;4973443;28;20818;-52
2022/07/13 03:34:04;;;;;;;0.90;0.70;;;;;;;19.26;84.36;100788.88;4973290;28;20540;-53
2022/07/13 03:36:31;;;;;;;1.10;1.00;;;;;;;19.21;84.84;100781.06;4973151;28;20458;-52
2022/07/13 03:38:57;;;;;;;1.63;0.60;;;;;;;19.28;84.41;100781.59;4971476;28;20956;-53
2022/07/13 03:41:24;;;;;;;0.90;0.53;;;;;;;19.37;83.80;100786.47;4966296;28;20461;-52
2022/07/13 03:43:50;;;;;;;1.07;0.97;;;;;;;19.32;84.11;100780.44;4966937;28;20461;-53
2022/07/13 03:46:17;;;;;;;0.60;0.60;;;;;;;19.32;83.71;100784.97;4972957;28;20450;-53
2022/07/13 03:48:43;;;;;;;0.70;0.70;;;;;;;19.45;83.46;100788.69;4973172;28;20482;-53
2022/07/13 03:51:10;;;;;;;1.10;0.63;;;;;;;19.52;83.05;100795.50;4973341;28;20455;-53
2022/07/13 03:53:36;;;;;;;0.60;0.43;;;;;;;19.63;82.15;100793.09;4973963;28;20454;-53
2022/07/13 03:56:03;;;;;;;1.17;0.60;;;;;;;19.66;82.53;100790.22;4977022;28;20455;-52
2022/07/13 03:58:30;;;;;;;1.30;0.60;;;;;;;19.68;82.21;100793.69;4968416;28;20787;-52
2022/07/13 04:00:57;;;;;;;9.10;1.37;;;;;;;19.34;84.69;100785.78;4976587;28;20835;-52
2022/07/13 04:03:23;;;;;;;0.63;0.53;;;;;;;19.31;85.41;100781.41;4963723;28;20534;-52
2022/07/13 04:05:50;;;;;;;0.60;0.53;;;;;;;19.37;85.98;100783.75;4976809;28;20490;-53
2022/07/13 04:08:17;;;;;;;4.60;0.87;;;;;;;19.38;85.99;100782.81;4976678;28;20477;-53
2022/07/13 04:10:44;;;;;;;0.60;0.50;;;;;;;19.50;85.76;100782.09;4967327;28;20537;-50
2022/07/13 04:13:10;;;;;;;1.00;0.90;;;;;;;19.38;85.57;100771.16;4972216;28;20544;-52
2022/07/13 04:15:37;;;;;;;0.70;0.60;;;;;;;19.19;87.74;100766.81;4976554;28;20454;-52
2022/07/13 04:18:04;;;;;;;3.00;1.13;;;;;;;19.25;86.84;100773.69;4976432;28;20513;-52
2022/07/13 04:20:31;;;;;;;0.77;0.60;;;;;;;19.53;85.82;100779.22;4976396;28;20803;-51
2022/07/13 04:22:57;;;;;;;0.80;0.40;;;;;;;19.75;84.99;100789.69;4975956;28;20486;-52
2022/07/13 04:25:24;;;;;;;1.67;1.43;;;;;;;19.75;84.50;100786.97;4976372;28;20498;-52
2022/07/13 04:27:50;;;;;;;0.60;0.43;;;;;;;19.78;83.94;100794.03;4975921;28;20474;-52
2022/07/13 04:30:17;;;;;;;0.60;0.50;;;;;;;19.86;83.48;100790.84;4976622;28;20461;-53
2022/07/13 04:32:43;;;;;;;0.87;0.50;;;;;;;19.98;82.82;100785.59;4976253;28;20454;-53
2022/07/13 04:35:10;;;;;;;0.77;0.50;;;;;;;20.20;82.08;100790.59;4976164;28;20984;-53
2022/07/13 04:37:36;;;;;;;0.67;0.53;;;;;;;20.04;81.80;100797.88;4976228;28;20478;-53
2022/07/13 04:40:03;;;;;;;2.90;1.50;;;;;;;20.09;81.06;100795.75;4975835;28;20458;-52
2022/07/13 04:42:30;;;;;;;1.50;0.50;;;;;;;20.09;81.11;100788.53;4962659;28;20816;-53
2022/07/13 04:44:56;;;;;;;4.83;0.80;;;;;;;20.05;81.35;100794.22;4975883;28;20494;-52
2022/07/13 04:47:23;;;;;;;0.70;0.60;;;;;;;19.95;80.70;100790.31;4975754;28;20477;-51
2022/07/13 04:49:49;;;;;;;1.83;1.23;;;;;;;20.03;80.19;100796.13;4975746;28;20454;-52
2022/07/13 04:52:15;;;;;;;1.80;1.70;;;;;;;20.11;79.57;100786.59;4976048;28;20533;-52
2022/07/13 04:54:42;;;;;;;0.70;0.50;;;;;;;20.11;79.69;100780.34;4987034;28;20438;-51
2022/07/13 04:57:08;;;;;;;1.90;0.90;;;;;;;20.29;78.96;100786.47;4965221;28;20922;-51
2022/07/13 04:59:35;;;;;;;1.50;1.10;;;;;;;20.30;79.33;100788.22;4975633;28;20467;-52
2022/07/13 05:02:01;;;;;;;0.90;0.70;;;;;;;20.35;79.29;100794.19;4971916;28;20469;-52
2022/07/13 05:04:28;;;;;;;0.60;0.43;;;;;;;20.40;79.95;100787.53;4966420;28;20450;-52
2022/07/13 05:06:55;;;;;;;0.93;0.67;;;;;;;20.46;79.62;100796.28;4975566;28;20494;-52
2022/07/13 05:09:21;;;;;;;0.73;0.57;;;;;;;20.52;78.58;100783.25;4975189;28;20469;-52
2022/07/13 05:11:48;;;;;;;1.63;0.70;;;;;;;20.68;78.86;100786.72;4961156;28;20822;-51
2022/07/13 05:14:15;;;;;;;0.60;0.50;;;;;;;20.74;77.68;100790.88;4975335;28;20458;-51
2022/07/13 05:16:41;;;;;;;2.13;0.93;;;;;;;20.61;77.57;100792.63;4975329;28;20838;-52
2022/07/13 05:19:08;;;;;;;0.70;0.57;;;;;;;20.64;76.70;100798.69;4975274;28;20478;-51
2022/07/13 05:21:34;;;;;;;9.73;0.87;;;;;;;20.70;76.62;100789.34;4975077;28;21051;-51
2022/07/13 05:24:02;;;;;;;0.83;0.83;;;;;;;20.83;76.96;100793.03;4975009;28;20454;-52
2022/07/13 05:26:28;;;;;;;0.87;0.60;;;;;;;20.81;76.86;100785.94;4974994;28;20517;-52
2022/07/13 05:28:56;;;;;;;1.97;0.80;;;;;;;20.70;77.32;100786.66;4975105;28;20477;-52
2022/07/13 05:31:22;;;;;;;0.90;0.90;;;;;;;20.78;76.80;100780.75;4975146;28;20457;-52
2022/07/13 05:33:49;;;;;;;1.53;1.03;;;;;;;20.92;76.15;100780.75;4974920;28;20454;-52
2022/07/13 05:36:15;;;;;;;3.70;1.13;;;;;;;20.97;75.49;100784.03;4974496;28;20469;-52
2022/07/13 05:38:42;;;;;;;3.60;1.13;;;;;;;20.97;76.07;100779.50;4974614;28;20513;-52
2022/07/13 05:41:08;;;;;;;10.53;0.80;;;;;;;20.93;74.67;100796.00;4969783;28;20458;-52
2022/07/13 05:43:35;;;;;;;0.90;0.63;;;;;;;21.11;74.08;100785.84;4967114;28;20493;-52
2022/07/13 05:46:02;;;;;;;13.43;1.27;;;;;;;21.22;73.39;100792.28;4974646;28;20490;-52
2022/07/13 05:48:28;;;;;;;1.00;0.83;;;;;;;21.25;73.51;100791.28;4974563;28;20979;-53
2022/07/13 05:50:55;;;;;;;2.83;1.63;;;;;;;21.29;74.48;100790.09;4974515;28;20849;-52
2022/07/13 05:53:41;;;;;;;10.70;2.27;;;;;;;21.56;72.36;100800.94;4976453;28;20805;-52
2022/07/13 05:56:08;;;;;;;1.73;0.60;;;;;;;21.68;71.96;100791.16;4977638;28;20447;-53
2022/07/13 05:58:35;;;;;;;1.00;0.87;;;;;;;21.44;71.26;100786.38;4969990;28;20474;-53
2022/07/13 06:01:01;;;;;;;17.90;0.87;;;;;;;21.81;70.33;100786.66;4973016;28;20576;-53
2022/07/13 06:03:28;;;;;;;2.30;1.67;;;;;;;21.68;70.88;100783.03;4961443;28;20455;-52
2022/07/13 06:05:54;;;;;;;0.77;0.57;;;;;;;21.64;71.03;100773.34;4972908;28;20490;-52
2022/07/13 06:08:21;;;;;;;1.47;1.13;;;;;;;21.73;70.50;100778.16;4974237;28;20478;-52
2022/07/13 06:10:47;;;;;;;2.30;0.70;;;;;;;21.64;69.88;100778.78;4965767;28;20471;-53
2022/07/13 06:13:14;;;;;;;0.73;0.63;;;;;;;21.90;69.80;100769.75;4970269;28;20473;-52
2022/07/13 06:15:40;;;;;;;1.60;0.60;;;;;;;21.94;69.13;100782.16;4973925;28;20450;-52
2022/07/13 06:18:07;;;;;;;0.80;0.67;;;;;;;22.14;69.15;100776.25;4973889;28;20514;-52
2022/07/13 06:20:33;;;;;;;0.80;0.60;;;;;;;22.45;67.35;100779.53;4974235;28;20517;-53
2022/07/13 06:23:09;;;;;;;0.80;0.60;;;;;;;22.43;66.85;100781.47;4973858;28;20462;-53
2022/07/13 06:25:39;;;;;;;0.90;0.73;;;;;;;22.92;65.48;100778.03;4974260;28;20561;-53
2022/07/13 06:28:07;;;;;;;0.60;0.47;;;;;;;22.75;66.04;100777.38;4973791;28;20493;-52
2022/07/13 06:30:34;;;;;;;2.20;0.53;;;;;;;22.86;65.77;100775.75;4974612;28;20450;-52
2022/07/13 06:33:00;;;;;;;1.17;0.60;;;;;;;22.85;64.68;100780.31;4974284;28;20489;-52
2022/07/13 06:35:28;;;;;;;1.57;1.47;;;;;;;22.79;65.12;100777.16;4973969;28;20461;-51
2022/07/13 06:37:55;;;;;;;0.73;0.70;;;;;;;23.08;65.36;100784.06;4973912;28;20474;-52
2022/07/13 06:40:21;;;;;;;0.87;0.70;;;;;;;23.00;64.83;100779.19;4973591;28;20450;-52
2022/07/13 06:42:49;;;;;;;12.83;0.70;;;;;;;22.98;65.58;100769.44;4960774;28;20890;-52
2022/07/13 06:45:16;;;;;;;0.53;0.43;;;;;;;23.05;64.73;100768.91;4973492;28;21004;-52
2022/07/13 06:47:43;;;;;;;0.70;0.50;;;;;;;23.28;63.79;100766.31;4973635;28;20466;-52
2022/07/13 06:50:10;;;;;;;0.77;0.70;;;;;;;23.51;61.13;100770.91;4973621;28;20464;-51
2022/07/13 06:52:37;;;;;;;1.47;1.37;;;;;;;23.68;60.73;100761.53;4973598;28;20454;-51
2022/07/13 06:55:04;;;;;;;7.00;0.90;;;;;;;23.91;61.25;100760.66;4986445;28;20446;-52
2022/07/13 06:57:31;;;;;;;1.73;0.67;;;;;;;23.77;61.04;100765.41;4954443;28;20562;-51
2022/07/13 06:59:57;;;;;;;1.70;0.87;;;;;;;23.99;60.38;100765.50;4967122;28;20454;-52
2022/07/13 07:02:24;;;;;;;0.90;0.53;;;;;;;24.24;59.41;100761.72;4959221;28;20827;-51
2022/07/13 07:04:51;;;;;;;0.53;0.43;;;;;;;24.41;57.93;100776.78;4966749;28;20962;-52
2022/07/13 07:07:17;;;;;;;15.57;1.33;;;;;;;24.74;56.94;100776.81;4973558;28;20561;-52
2022/07/13 07:09:44;;;;;;;15.23;0.70;;;;;;;24.50;56.63;100781.47;4973130;28;20491;-53
2022/07/13 07:12:10;;;;;;;3.23;1.17;;;;;;;24.80;57.21;100778.16;4960930;28;20454;-52
2022/07/13 07:14:37;;;;;;;0.70;0.70;;;;;;;24.59;59.08;100778.03;4973413;28;20451;-52
2022/07/13 07:17:04;;;;;;;5.90;0.80;;;;;;;24.57;59.14;100782.72;4973202;28;20445;-52
2022/07/13 07:19:30;;;;;;;12.27;0.80;;;;;;;25.08;58.72;100780.44;4973113;28;20871;-52
2022/07/13 07:21:57;;;;;;;0.87;0.70;;;;;;;25.43;56.37;100781.25;4973286;28;20939;-52
2022/07/13 07:24:24;;;;;;;5.30;0.60;;;;;;;25.76;56.71;100770.28;4973087;28;20450;-52
2022/07/13 07:26:51;;;;;;;0.90;0.67;;;;;;;25.87;55.92;100769.38;4972814;28;20490;-52
2022/07/13 07:29:17;;;;;;;0.63;0.50;;;;;;;26.02;53.00;100768.06;4972064;28;20806;-52
2022/07/13 07:31:44;;;;;;;9.03;0.73;;;;;;;26.37;51.17;100762.34;4973371;28;20467;-52
2022/07/13 07:34:10;;;;;;;1.73;0.70;;;;;;;26.51;50.40;100777.47;4974682;28;20457;-52
2022/07/13 07:36:37;;;;;;;1.07;0.63;;;;;;;26.86;49.47;100772.53;4976736;28;20457;-52
2022/07/13 07:39:04;;;;;;;0.60;0.50;;;;;;;27.42;49.63;100768.44;4977057;28;20474;-52
2022/07/13 07:41:30;;;;;;;8.40;0.80;;;;;;;27.15;49.68;100769.06;4968882;28;20451;-52
2022/07/13 07:43:57;;;;;;;0.60;0.50;;;;;;;27.12;50.54;100769.31;4971810;28;20952;-53
2022/07/13 07:46:23;;;;;;;1.23;0.70;;;;;;;27.06;50.29;100764.44;4977071;28;20513;-53
2022/07/13 07:48:50;;;;;;;0.70;0.50;;;;;;;27.18;51.02;100757.00;4976974;28;20474;-52
2022/07/13 07:51:16;;;;;;;4.73;0.97;;;;;;;27.24;49.73;100756.44;4976769;28;20484;-52
2022/07/13 07:53:43;;;;;;;6.00;1.03;;;;;;;27.25;49.88;100755.44;4978589;28;20863;-52
2022/07/13 07:56:10;;;;;;;0.90;0.70;;;;;;;27.51;49.10;100753.91;4979174;28;20517;-52
2022/07/13 07:58:36;;;;;;;12.60;1.07;;;;;;;27.59;49.16;100753.22;4972361;28;20488;-53
2022/07/13 08:01:03;;;;;;;4.00;1.00;;;;;;;27.33;50.11;100751.00;4976859;28;20465;-53
2022/07/13 08:03:29;;;;;;;0.70;0.53;;;;;;;27.31;49.82;100744.81;4963514;28;20483;-52
2022/07/13 08:05:57;;;;;;;5.30;0.57;;;;;;;27.40;49.17;100745.81;4976458;28;20468;-52
2022/07/13 08:08:24;;;;;;;0.70;0.60;;;;;;;27.63;49.54;100739.09;4976233;28;20852;-52
2022/07/13 08:10:50;;;;;;;3.23;0.70;;;;;;;27.96;49.74;100745.19;4967116;28;20562;-52
2022/07/13 08:13:17;;;;;;;5.70;1.07;;;;;;;28.60;47.92;100739.91;4972660;28;20468;-52
2022/07/13 08:15:43;;;;;;;12.03;0.80;;;;;;;28.14;47.00;100739.84;4976548;28;20450;-53
2022/07/13 08:18:10;;;;;;;1.13;1.03;;;;;;;28.08;46.91;100741.28;4976313;28;20470;-52
2022/07/13 08:20:56;;;;;;;0.97;0.47;;;;;;;28.06;48.51;100737.84;4976363;28;20457;-53
2022/07/13 08:26:08;;;;;;;0.60;0.40;;;;;;;28.26;47.75;100733.22;4976281;28;20516;-52
2022/07/13 08:28:39;;;;;;;0.70;0.60;;;;;;;28.31;46.87;100737.25;4976371;28;20536;-53
2022/07/13 08:31:05;;;;;;;1.80;0.97;;;;;;;28.56;45.99;100735.75;4976053;28;20815;-53
2022/07/13 08:39:02;;;;;;;1.40;0.70;;;;;;;28.86;45.68;100731.91;4976241;28;20473;-54
2022/07/13 08:41:29;;;;;;;1.03;1.00;;;;;;;28.86;45.45;100734.63;4969060;28;20950;-53
2022/07/13 08:43:55;;;;;;;5.57;0.83;;;;;;;28.98;44.90;100729.88;4969820;28;20469;-53
2022/07/13 08:46:22;;;;;;;1.03;0.60;;;;;;;29.01;44.80;100731.44;4975662;28;20494;-53
2022/07/13 08:48:50;;;;;;;0.80;0.60;;;;;;;28.92;45.33;100725.00;4976167;28;20849;-54
2022/07/13 08:51:18;;;;;;;1.27;0.80;;;;;;;29.54;44.93;100734.31;4975715;28;20820;-54
2022/07/13 08:53:44;;;;;;;27.07;1.40;;;;;;;29.73;44.45;100722.31;4977920;28;20462;-53
2022/07/13 08:56:11;;;;;;;2.13;1.10;;;;;;;29.61;45.39;100713.50;4977482;28;20964;-54
2022/07/13 08:58:38;;;;;;;5.23;0.70;;;;;;;29.19;43.90;100727.75;4971992;28;20470;-54
2022/07/13 09:01:08;;;;;;;10.90;0.80;;;;;;;29.51;44.11;100726.41;4975396;28;20431;-53
2022/07/13 09:03:35;;;;;;;0.80;0.50;;;;;;;30.04;42.34;100712.69;4962622;28;20450;-53
2022/07/13 09:06:02;;;;;;;0.83;0.50;;;;;;;30.36;40.22;100714.81;4975682;28;20498;-54
2022/07/13 09:08:29;;;;;;;4.93;0.50;;;;;;;30.27;40.99;100707.53;4975346;28;20471;-54
2022/07/13 09:10:58;;;;;;;2.90;0.97;;;;;;;30.77;40.04;100712.34;4965455;28;20455;-54
2022/07/13 09:13:40;;;;;;;0.50;0.40;;;;;;;30.63;37.63;100712.97;4973088;28;20457;-53
2022/07/13 09:16:23;;;;;;;0.60;0.50;;;;;;;30.35;35.67;100702.13;4975329;28;20504;-53
2022/07/13 09:18:51;;;;;;;0.70;0.40;;;;;;;30.51;35.71;100697.75;4975170;28;20470;-54
2022/07/13 09:21:24;;;;;;;0.50;0.40;;;;;;;30.54;35.33;100705.66;4975172;28;20453;-54
2022/07/13 09:23:56;;;;;;;0.50;0.30;;;;;;;30.58;36.04;100705.19;4975369;28;20432;-54
2022/07/13 09:26:22;;;;;;;0.40;0.30;;;;;;;30.80;35.29;100695.53;4975062;28;20552;-54
2022/07/13 09:28:51;;;;;;;0.60;0.40;;;;;;;30.74;36.06;100701.69;4974972;28;20480;-54
2022/07/13 09:31:18;;;;;;;0.60;0.50;;;;;;;30.82;34.90;100690.72;4975126;28;20457;-54
2022/07/13 09:33:46;;;;;;;0.60;0.40;;;;;;;31.30;32.86;100689.22;4974975;28;20846;-54
2022/07/13 09:36:15;;;;;;;0.70;0.50;;;;;;;31.48;32.83;100697.31;4974640;28;20454;-54
2022/07/13 09:38:46;;;;;;;1.73;0.40;;;;;;;31.86;33.76;100697.75;4974730;28;20829;-53
2022/07/13 09:41:18;;;;;;;0.57;0.40;;;;;;;31.65;33.29;100698.19;4969235;28;20524;-54
2022/07/13 09:46:36;;;;;;;0.67;0.63;;;;;;;32.08;31.94;100691.56;4974577;28;20520;-55
2022/07/13 09:49:02;;;;;;;0.57;0.40;;;;;;;32.20;31.09;100686.53;4974748;28;20445;-54
2022/07/13 09:51:29;;;;;;;0.40;0.30;;;;;;;32.08;30.46;100689.66;4974546;28;20926;-54
2022/07/13 09:54:00;;;;;;;0.50;0.40;;;;;;;32.26;31.10;100686.69;4977921;28;20416;-54
2022/07/13 09:56:30;;;;;;;0.70;0.50;;;;;;;32.11;30.41;100689.31;4971255;28;20903;-54
2022/07/13 09:58:59;;;;;;;0.70;0.60;;;;;;;32.11;30.41;100680.19;4973085;28;20471;-55
2022/07/13 10:01:25;;;;;;;0.50;0.30;;;;;;;32.32;31.16;100685.16;4974361;28;20846;-54
2022/07/13 10:03:53;;;;;;;5.90;0.40;;;;;;;32.19;31.10;100688.41;4961466;28;20453;-54
2022/07/13 10:06:20;;;;;;;6.70;0.70;;;;;;;32.31;31.77;100691.72;4974386;28;20494;-54
2022/07/13 10:08:48;;;;;;;0.50;0.33;;;;;;;32.15;32.03;100677.94;4973101;28;20456;-54
2022/07/13 10:11:15;;;;;;;0.60;0.40;;;;;;;31.75;31.46;100666.78;4961646;28;20470;-54
2022/07/13 10:13:44;;;;;;;5.90;0.60;;;;;;;32.01;32.00;100672.13;4973839;28;20436;-54
2022/07/13 10:16:10;;;;;;;1.33;1.23;;;;;;;32.33;32.77;100675.88;4974341;28;20421;-54
2022/07/13 10:18:39;;;;;;;1.73;0.50;;;;;;;32.36;32.57;100672.78;4955012;28;20485;-54
2022/07/13 10:21:18;;;;;;;0.60;0.40;;;;;;;32.18;33.35;100675.69;4968130;28;20520;-54
2022/07/13 10:23:45;;;;;;;0.50;0.40;;;;;;;32.33;33.22;100675.88;4973897;28;20436;-54
2022/07/13 10:26:21;;;;;;;0.53;0.40;;;;;;;31.96;33.11;100677.28;4974140;28;20545;-53
2022/07/13 10:29:24;;;;;;;1.83;0.43;;;;;;;32.37;31.79;100669.84;4974187;28;20508;-54
2022/07/13 10:31:59;;;;;;;0.50;0.40;;;;;;;32.36;32.48;100673.66;4933212;29;20462;-54
2022/07/13 10:34:57;;;;;;;0.50;0.30;;;;;;;32.65;32.61;100674.94;4955300;28;20450;-54
2022/07/13 10:37:26;;;;;;;0.80;0.80;;;;;;;32.85;32.40;100681.75;4973832;28;20541;-54
2022/07/13 10:40:08;;;;;;;0.50;0.40;;;;;;;32.98;30.97;100682.03;4973796;28;20437;-54
2022/07/13 10:42:53;;;;;;;0.63;0.63;;;;;;;33.20;29.99;100676.78;4960668;28;20793;-54
2022/07/13 10:45:33;;;;;;;0.60;0.50;;;;;;;33.48;29.95;100674.38;4973738;28;20453;-54
2022/07/13 10:48:04;;;;;;;0.40;0.30;;;;;;;33.38;29.17;100671.00;4973671;28;20506;-54
2022/07/13 10:50:38;;;;;;;0.70;0.60;;;;;;;33.07;29.53;100665.47;4973439;28;20508;-54
2022/07/13 10:53:07;;;;;;;1.10;0.50;;;;;;;33.45;29.25;100658.22;4973618;28;20425;-54
2022/07/13 10:55:47;;;;;;;0.60;0.50;;;;;;;33.38;29.70;100669.09;4981282;28;20425;-54
2022/07/13 10:58:29;;;;;;;0.50;0.30;;;;;;;33.49;28.29;100663.16;4967266;28;20441;-54
2022/07/13 11:00:57;;;;;;;0.50;0.37;;;;;;;33.43;28.83;100647.34;4973237;28;20955;-54
2022/07/13 11:03:48;;;;;;;0.63;0.43;;;;;;;34.19;27.60;100642.75;4960796;28;20455;-54
2022/07/13 11:06:23;;;;;;;0.50;0.40;;;;;;;34.36;27.74;100651.69;4973055;28;21030;-55
2022/07/13 11:09:09;;;;;;;0.60;0.40;;;;;;;34.20;27.03;100651.88;4973412;28;20476;-55
2022/07/13 11:11:53;;;;;;;0.50;0.40;;;;;;;34.52;26.24;100650.69;4956152;28;20449;-54
2022/07/13 11:14:35;;;;;;;0.40;0.30;;;;;;;34.22;25.86;100636.84;4972276;28;20798;-54
2022/07/13 11:17:16;;;;;;;0.50;0.40;;;;;;;34.38;26.14;100641.34;4972954;28;20916;-54
2022/07/13 11:19:50;;;;;;;0.60;0.40;;;;;;;34.82;25.78;100649.63;4973039;28;20958;-54
2022/07/13 11:22:17;;;;;;;0.60;0.40;;;;;;;34.97;25.25;100650.50;4973318;28;20458;-54
2022/07/13 11:25:23;;;;;;;0.50;0.40;;;;;;;34.43;25.75;100639.75;4973220;28;20451;-54
2022/07/13 11:28:03;;;;;;;2.40;0.50;;;;;;;35.06;25.56;100636.53;4956341;28;20472;-54
2022/07/13 11:30:34;;;;;;;0.50;0.40;;;;;;;34.10;24.73;100628.16;4964373;28;20492;-53
2022/07/13 11:33:01;;;;;;;0.73;0.73;;;;;;;34.06;24.44;100625.97;4973257;28;20457;-54
2022/07/13 11:35:28;;;;;;;0.77;0.50;;;;;;;34.66;23.88;100631.34;4972777;28;20986;-53
2022/07/13 11:37:56;;;;;;;1.33;0.50;;;;;;;34.64;23.00;100624.28;4973396;28;20459;-50
2022/07/13 11:40:31;;;;;;;0.60;0.53;;;;;;;34.80;24.25;100626.84;4974348;28;20454;-50